Time;durP1;ratioP1;P1;durP2;ratioP2;P2;SDS_P1;SDS_P2;PMS_P1;PMS_P2;Temp;Humidity;BMP_temperature;BMP_pressure;BME280_temperature;BME280_humidity;BME280_pressure;Samples;Min_cycle;Max_cycle;Signal;HPM_P1;HPM_P2
2023/11/11 00:01:29;;;;;;;5.23;3.20;;;9.00;99.90;;;;;;4161497;28;20072;-58
2023/11/11 00:03:30;;;;;;;7.10;3.20;;;9.10;99.90;;;;;;4160324;28;20543;-56
2023/11/11 00:05:32;;;;;;;6.20;3.07;;;9.10;99.90;;;;;;4162144;28;20033;-58
2023/11/11 00:07:33;;;;;;;5.77;3.10;;;9.10;99.90;;;;;;4160083;28;20033;-59
2023/11/11 00:09:34;;;;;;;4.90;3.23;;;9.10;99.90;;;;;;4161045;28;20052;-57
2023/11/11 00:11:35;;;;;;;7.97;3.60;;;9.00;99.90;;;;;;4160418;28;20417;-55
2023/11/11 00:13:37;;;;;;;5.07;3.37;;;9.00;99.90;;;;;;4160424;28;20092;-57
2023/11/11 00:15:38;;;;;;;5.67;3.37;;;9.00;99.90;;;;;;4160314;28;20045;-57
2023/11/11 00:17:40;;;;;;;5.40;3.43;;;8.90;99.90;;;;;;4160566;28;20363;-58
2023/11/11 00:19:42;;;;;;;5.87;3.13;;;8.90;99.90;;;;;;4159819;28;20033;-57
2023/11/11 00:21:49;;;;;;;6.23;3.97;;;8.80;99.90;;;;;;4161145;28;20091;-59
2023/11/11 00:23:50;;;;;;;4.77;3.47;;;8.80;99.90;;;;;;4159657;28;20029;-57
2023/11/11 00:25:51;;;;;;;7.60;4.13;;;8.70;99.90;;;;;;4160993;28;20042;-57
2023/11/11 00:27:53;;;;;;;5.17;3.87;;;8.70;99.90;;;;;;4160491;28;20071;-56
2023/11/11 00:29:56;;;;;;;3.90;3.50;;;8.70;99.90;;;;;;4159457;28;20083;-57
2023/11/11 00:31:58;;;;;;;7.30;4.30;;;8.60;99.90;;;;;;4161260;28;20053;-58
2023/11/11 00:33:59;;;;;;;6.27;4.30;;;8.60;99.90;;;;;;4159400;28;20096;-57
2023/11/11 00:36:04;;;;;;;7.33;4.00;;;8.60;99.90;;;;;;4161448;28;20050;-56
2023/11/11 00:38:09;;;;;;;4.60;3.37;;;8.50;99.90;;;;;;4158380;28;20045;-57
2023/11/11 00:40:11;;;;;;;7.87;3.70;;;8.40;99.90;;;;;;4160817;28;20049;-57
2023/11/11 00:42:14;;;;;;;7.93;3.37;;;8.30;99.90;;;;;;4160003;28;20091;-55
2023/11/11 00:44:15;;;;;;;6.03;4.10;;;8.30;99.90;;;;;;4160211;28;20049;-57
2023/11/11 00:46:17;;;;;;;7.07;3.37;;;8.30;99.90;;;;;;4160242;28;20084;-57
2023/11/11 00:48:19;;;;;;;5.30;3.67;;;8.20;99.90;;;;;;4161040;28;20033;-53
2023/11/11 00:50:20;;;;;;;8.17;3.80;;;8.10;99.90;;;;;;4159543;28;20446;-57
2023/11/11 00:52:21;;;;;;;5.80;3.17;;;8.10;99.90;;;;;;4161012;28;20091;-58
2023/11/11 00:54:23;;;;;;;6.30;3.43;;;8.10;99.90;;;;;;4159243;28;20060;-57
2023/11/11 00:56:24;;;;;;;7.20;3.87;;;8.10;99.90;;;;;;4160903;28;20041;-55
2023/11/11 00:58:25;;;;;;;7.67;3.90;;;8.10;99.90;;;;;;4159390;28;20025;-56
2023/11/11 01:00:26;;;;;;;6.70;4.17;;;8.10;99.90;;;;;;4160292;28;20115;-55
2023/11/11 01:02:27;;;;;;;8.07;3.70;;;8.00;99.90;;;;;;4160640;28;20485;-57
2023/11/11 01:04:29;;;;;;;6.30;3.33;;;8.00;99.90;;;;;;4162591;28;20099;-56
2023/11/11 01:06:30;;;;;;;5.17;3.60;;;8.00;99.90;;;;;;4164422;28;20477;-58
2023/11/11 01:08:31;;;;;;;4.83;3.27;;;8.00;99.90;;;;;;4162143;28;20304;-54
2023/11/11 01:10:37;;;;;;;6.03;3.10;;;7.90;99.90;;;;;;4164344;28;20115;-58
2023/11/11 01:12:38;;;;;;;5.93;3.23;;;7.90;99.90;;;;;;4162855;28;20041;-55
2023/11/11 01:14:40;;;;;;;5.10;3.27;;;7.80;99.90;;;;;;4163400;28;20535;-59
2023/11/11 01:16:41;;;;;;;5.93;3.30;;;7.80;99.90;;;;;;4163246;28;20091;-55
2023/11/11 01:18:42;;;;;;;7.50;3.50;;;7.80;99.90;;;;;;4163300;28;20037;-55
2023/11/11 01:20:43;;;;;;;6.83;3.73;;;7.80;99.90;;;;;;4162753;28;20029;-58
2023/11/11 01:22:44;;;;;;;6.23;3.20;;;7.80;99.90;;;;;;4164327;28;20438;-59
2023/11/11 01:24:49;;;;;;;7.80;3.50;;;7.70;99.90;;;;;;4162115;28;20508;-57
2023/11/11 01:26:50;;;;;;;8.83;3.50;;;7.70;99.90;;;;;;4163781;28;20033;-57
2023/11/11 01:28:51;;;;;;;4.70;2.90;;;7.60;99.90;;;;;;4162134;28;20447;-57
2023/11/11 01:30:53;;;;;;;5.00;3.70;;;7.50;99.90;;;;;;4163030;28;20087;-58
2023/11/11 01:32:54;;;;;;;7.63;3.80;;;7.50;99.90;;;;;;4163258;28;20501;-58
2023/11/11 01:34:55;;;;;;;5.57;2.97;;;7.50;99.90;;;;;;4162660;28;20053;-57
2023/11/11 01:36:57;;;;;;;5.37;3.47;;;7.50;99.90;;;;;;4163356;28;20053;-57
2023/11/11 01:38:58;;;;;;;5.17;2.93;;;7.40;99.90;;;;;;4162124;28;20425;-55
2023/11/11 01:40:59;;;;;;;8.10;3.70;;;7.40;99.90;;;;;;4163621;28;20191;-57
2023/11/11 01:43:00;;;;;;;6.70;3.83;;;7.40;99.90;;;;;;4162939;28;20473;-55
2023/11/11 01:45:01;;;;;;;7.10;3.83;;;7.40;99.90;;;;;;4162713;28;20025;-57
2023/11/11 01:47:07;;;;;;;4.37;3.40;;;7.30;99.90;;;;;;4162366;28;20029;-57
2023/11/11 01:49:08;;;;;;;7.33;3.20;;;7.30;99.90;;;;;;4163137;28;20033;-57
2023/11/11 01:51:10;;;;;;;7.23;3.97;;;7.30;99.90;;;;;;4162223;28;20057;-57
2023/11/11 01:53:13;;;;;;;5.07;3.40;;;7.30;99.90;;;;;;4163537;28;20099;-57
2023/11/11 01:55:15;;;;;;;4.23;2.80;;;7.30;99.90;;;;;;4164303;28;20571;-57
2023/11/11 01:57:16;;;;;;;5.87;3.30;;;7.30;99.90;;;;;;4163415;28;20429;-58
2023/11/11 01:59:18;;;;;;;5.93;3.47;;;7.30;99.90;;;;;;4161994;28;20463;-57
2023/11/11 02:01:19;;;;;;;6.97;3.43;;;7.30;99.90;;;;;;4162558;28;20504;-57
2023/11/11 02:03:23;;;;;;;6.63;3.80;;;7.20;99.90;;;;;;4162524;28;20038;-54
2023/11/11 02:05:25;;;;;;;3.20;2.60;;;7.20;99.90;;;;;;4161771;28;20056;-58
2023/11/11 02:07:26;;;;;;;4.27;2.97;;;7.20;99.90;;;;;;4162719;28;20079;-57
2023/11/11 02:09:27;;;;;;;7.23;3.77;;;7.20;99.90;;;;;;4162430;28;20033;-57
2023/11/11 02:11:28;;;;;;;7.93;3.73;;;7.30;99.90;;;;;;4163379;28;20041;-56
2023/11/11 02:13:34;;;;;;;7.13;3.30;;;7.20;99.90;;;;;;4162522;28;20921;-57
2023/11/11 02:15:36;;;;;;;5.47;3.23;;;7.20;99.90;;;;;;4161914;28;20041;-54
2023/11/11 02:17:37;;;;;;;5.90;3.50;;;7.20;99.90;;;;;;4162051;28;20041;-55
2023/11/11 02:19:38;;;;;;;9.33;3.90;;;7.10;99.90;;;;;;4163127;28;20109;-60
2023/11/11 02:21:39;;;;;;;4.83;3.03;;;7.10;99.90;;;;;;4162118;28;20046;-59
2023/11/11 02:23:40;;;;;;;4.03;3.40;;;7.00;99.90;;;;;;4162976;28;20037;-57
2023/11/11 02:25:41;;;;;;;5.87;3.90;;;7.00;99.90;;;;;;4161705;28;20453;-59
2023/11/11 02:27:45;;;;;;;6.33;3.47;;;6.90;99.90;;;;;;4163062;28;20042;-52
2023/11/11 02:29:47;;;;;;;3.83;3.03;;;6.90;99.90;;;;;;4162050;28;20045;-56
2023/11/11 02:31:48;;;;;;;4.53;3.53;;;6.90;99.90;;;;;;4162453;28;20025;-55
2023/11/11 02:33:49;;;;;;;5.13;3.07;;;6.90;99.90;;;;;;4161823;28;20457;-57
2023/11/11 02:35:51;;;;;;;7.07;3.00;;;6.90;99.90;;;;;;4161756;28;20421;-56
2023/11/11 02:37:52;;;;;;;5.53;2.73;;;6.80;99.90;;;;;;4162013;28;20030;-54
2023/11/11 02:39:53;;;;;;;6.37;3.67;;;6.80;99.90;;;;;;4162020;28;20091;-58
2023/11/11 02:41:54;;;;;;;6.87;3.53;;;6.90;99.90;;;;;;4162325;28;20614;-57
2023/11/11 02:43:55;;;;;;;5.07;3.40;;;6.80;99.90;;;;;;4162108;28;20045;-54
2023/11/11 02:45:56;;;;;;;4.33;2.97;;;6.80;99.90;;;;;;4163010;28;20494;-57
2023/11/11 02:47:58;;;;;;;4.83;3.37;;;6.80;99.90;;;;;;4161761;28;20151;-57
2023/11/11 02:49:59;;;;;;;4.33;3.37;;;6.80;99.90;;;;;;4162677;28;20030;-53
2023/11/11 02:52:00;;;;;;;7.50;3.13;;;6.80;99.90;;;;;;4161466;28;20084;-58
2023/11/11 02:54:01;;;;;;;5.47;3.33;;;6.90;99.90;;;;;;4161732;28;20053;-56
2023/11/11 02:56:03;;;;;;;7.93;4.00;;;6.80;99.90;;;;;;4161474;28;20045;-58
2023/11/11 02:58:04;;;;;;;4.10;3.07;;;6.80;99.90;;;;;;4162642;28;20095;-58
2023/11/11 03:00:10;;;;;;;6.50;3.43;;;6.70;99.90;;;;;;4161491;28;20552;-57
2023/11/11 03:02:11;;;;;;;5.50;3.40;;;6.70;99.90;;;;;;4162334;28;20041;-55
2023/11/11 03:04:12;;;;;;;4.23;2.90;;;6.70;99.90;;;;;;4161498;28;20127;-56
2023/11/11 03:06:13;;;;;;;7.67;4.07;;;6.70;99.90;;;;;;4160532;28;20037;-55
2023/11/11 03:08:16;;;;;;;5.23;3.50;;;6.70;99.90;;;;;;4160996;28;20045;-57
2023/11/11 03:10:17;;;;;;;5.83;3.60;;;6.80;99.90;;;;;;4161617;28;20091;-56
2023/11/11 03:12:18;;;;;;;5.03;3.53;;;6.80;99.90;;;;;;4161182;28;20037;-57
2023/11/11 03:14:19;;;;;;;5.70;3.47;;;6.80;99.90;;;;;;4160397;28;20151;-59
2023/11/11 03:16:20;;;;;;;4.27;3.30;;;6.80;99.90;;;;;;4162355;28;20080;-56
2023/11/11 03:18:21;;;;;;;4.23;3.60;;;6.80;99.90;;;;;;4160367;28;20433;-57
2023/11/11 03:20:22;;;;;;;8.90;4.17;;;6.80;99.90;;;;;;4161412;28;20033;-57
2023/11/11 03:22:23;;;;;;;5.77;4.00;;;6.80;99.90;;;;;;4160696;28;20075;-56
2023/11/11 03:24:24;;;;;;;6.17;3.97;;;6.80;99.90;;;;;;4161417;28;20112;-58
2023/11/11 03:26:27;;;;;;;4.23;3.57;;;6.80;99.90;;;;;;4159576;28;20068;-56
2023/11/11 03:28:29;;;;;;;7.37;4.20;;;6.80;99.90;;;;;;4160556;28;20084;-56
2023/11/11 03:30:30;;;;;;;5.20;3.13;;;6.70;99.90;;;;;;4160412;28;20041;-54
2023/11/11 03:32:31;;;;;;;4.90;3.37;;;6.70;99.90;;;;;;4161265;28;20474;-59
2023/11/11 03:34:32;;;;;;;4.70;3.47;;;6.70;99.90;;;;;;4160761;28;20486;-57
2023/11/11 03:36:33;;;;;;;6.50;3.87;;;6.80;99.90;;;;;;4161504;28;20099;-59
2023/11/11 03:38:35;;;;;;;3.77;2.87;;;6.80;99.90;;;;;;4161137;28;20025;-57
2023/11/11 03:40:36;;;;;;;5.07;3.10;;;6.80;99.90;;;;;;4161386;28;20026;-55
2023/11/11 03:42:37;;;;;;;3.83;3.37;;;6.80;99.90;;;;;;4160344;28;20512;-56
2023/11/11 03:44:38;;;;;;;5.43;3.77;;;6.80;99.90;;;;;;4161208;28;20079;-55
2023/11/11 03:46:39;;;;;;;4.90;3.67;;;6.80;99.90;;;;;;4161781;28;20484;-58
2023/11/11 03:48:40;;;;;;;4.97;3.97;;;6.80;99.90;;;;;;4159289;28;20064;-57
2023/11/11 03:50:42;;;;;;;7.90;3.53;;;6.80;99.90;;;;;;4162065;28;20579;-58
2023/11/11 03:52:43;;;;;;;6.23;3.70;;;6.80;99.90;;;;;;4159634;28;20095;-57
2023/11/11 03:54:44;;;;;;;5.17;3.53;;;6.70;99.90;;;;;;4161505;28;20041;-57
2023/11/11 03:56:48;;;;;;;4.07;3.43;;;6.70;99.90;;;;;;4160274;28;20084;-57
2023/11/11 03:58:50;;;;;;;4.73;3.47;;;6.70;99.90;;;;;;4161821;28;20367;-56
2023/11/11 04:00:51;;;;;;;5.63;3.47;;;6.70;99.90;;;;;;4159629;28;20033;-58
2023/11/11 04:02:53;;;;;;;7.23;4.60;;;6.70;99.90;;;;;;4160505;28;20041;-57
2023/11/11 04:04:55;;;;;;;5.53;3.77;;;6.70;99.90;;;;;;4143871;28;20022;-55
2023/11/11 04:06:57;;;;;;;8.87;3.53;;;6.70;99.90;;;;;;4157432;28;20494;-58
2023/11/11 04:08:58;;;;;;;5.77;3.30;;;6.70;99.90;;;;;;4159400;28;20443;-58
2023/11/11 04:10:59;;;;;;;5.77;3.50;;;6.70;99.90;;;;;;4161158;28;20075;-55
2023/11/11 04:13:00;;;;;;;5.33;3.67;;;6.70;99.90;;;;;;4160208;28;20103;-58
2023/11/11 04:15:03;;;;;;;4.93;3.83;;;6.70;99.90;;;;;;4160989;28;20107;-52
2023/11/11 04:17:04;;;;;;;4.87;3.27;;;6.70;99.90;;;;;;4160794;28;20079;-58
2023/11/11 04:19:05;;;;;;;3.73;3.00;;;6.80;99.90;;;;;;4160012;28;20462;-58
2023/11/11 04:21:06;;;;;;;4.70;3.27;;;6.80;99.90;;;;;;4161564;28;20033;-55
2023/11/11 04:23:07;;;;;;;4.73;3.37;;;6.90;99.90;;;;;;4160093;28;20457;-57
2023/11/11 04:25:09;;;;;;;5.00;3.40;;;6.90;99.90;;;;;;4161589;28;20068;-56
2023/11/11 04:27:10;;;;;;;7.10;3.47;;;7.00;99.90;;;;;;4160092;28;20076;-57
2023/11/11 04:29:11;;;;;;;4.47;2.97;;;6.90;99.90;;;;;;4161049;28;20041;-57
2023/11/11 04:31:17;;;;;;;4.93;3.37;;;6.90;99.90;;;;;;4159822;28;20033;-58
2023/11/11 04:33:19;;;;;;;7.27;3.83;;;6.90;99.90;;;;;;4160972;28;20049;-57
2023/11/11 04:35:20;;;;;;;6.13;3.43;;;6.90;99.90;;;;;;4159843;28;20021;-56
2023/11/11 04:37:21;;;;;;;4.47;3.73;;;6.90;99.90;;;;;;4160965;28;20100;-58
2023/11/11 04:39:23;;;;;;;6.40;4.20;;;6.90;99.90;;;;;;4158674;28;20072;-56
2023/11/11 04:41:26;;;;;;;5.17;3.53;;;6.90;99.90;;;;;;4160318;28;20516;-56
2023/11/11 04:43:27;;;;;;;6.47;3.40;;;6.90;99.90;;;;;;4160703;28;20037;-56
2023/11/11 04:45:31;;;;;;;5.80;3.83;;;6.80;99.90;;;;;;4159795;28;20457;-56
2023/11/11 04:47:32;;;;;;;6.23;3.50;;;6.80;99.90;;;;;;4160164;28;20389;-57
2023/11/11 04:49:34;;;;;;;6.97;3.50;;;6.80;99.90;;;;;;4159952;28;20433;-58
2023/11/11 04:51:35;;;;;;;5.03;3.70;;;6.80;99.90;;;;;;4160687;28;20470;-56
2023/11/11 04:53:36;;;;;;;4.60;3.67;;;6.80;99.90;;;;;;4159804;28;20132;-57
2023/11/11 04:55:38;;;;;;;8.13;4.07;;;6.90;99.90;;;;;;4160684;28;20635;-55
2023/11/11 04:57:39;;;;;;;5.73;3.80;;;6.90;99.90;;;;;;4160069;28;20041;-57
2023/11/11 04:59:40;;;;;;;5.87;3.47;;;6.90;99.90;;;;;;4160921;28;20033;-57
2023/11/11 05:01:41;;;;;;;5.70;3.77;;;7.00;99.90;;;;;;4159825;28;20040;-57
2023/11/11 05:03:45;;;;;;;7.37;4.60;;;7.00;99.90;;;;;;4160942;28;20083;-58
2023/11/11 05:05:46;;;;;;;5.17;4.10;;;7.00;99.90;;;;;;4160001;28;20453;-58
2023/11/11 05:07:48;;;;;;;8.97;5.13;;;7.00;99.90;;;;;;4161013;28;20080;-58
2023/11/11 05:09:49;;;;;;;6.00;4.00;;;7.00;99.90;;;;;;4159870;28;20409;-57
2023/11/11 05:11:50;;;;;;;6.90;4.77;;;7.00;99.90;;;;;;4161429;28;20041;-57
2023/11/11 05:13:51;;;;;;;6.73;4.33;;;6.90;99.90;;;;;;4160258;28;20042;-57
2023/11/11 05:16:03;;;;;;;7.37;4.57;;;6.90;99.90;;;;;;4160351;28;20130;-56
2023/11/11 05:18:04;;;;;;;8.10;4.60;;;6.80;99.90;;;;;;4158305;28;20026;-58
2023/11/11 05:20:07;;;;;;;9.50;4.17;;;6.80;99.90;;;;;;4160053;28;20108;-57
2023/11/11 05:22:09;;;;;;;5.77;3.90;;;6.80;99.90;;;;;;4160250;28;20694;-57
2023/11/11 05:24:13;;;;;;;7.43;3.83;;;6.80;99.90;;;;;;4160041;28;20038;-57
2023/11/11 05:26:14;;;;;;;7.63;4.00;;;6.80;99.90;;;;;;4160216;28;20026;-55
2023/11/11 05:28:15;;;;;;;7.53;3.77;;;6.80;99.90;;;;;;4159941;28;20405;-56
2023/11/11 05:30:16;;;;;;;13.47;4.70;;;6.80;99.90;;;;;;4160719;28;20037;-59
2023/11/11 05:32:17;;;;;;;7.20;4.40;;;6.80;99.90;;;;;;4159210;28;20045;-57
2023/11/11 05:34:18;;;;;;;8.13;3.97;;;6.80;99.90;;;;;;4160499;28;20483;-58
2023/11/11 05:36:20;;;;;;;6.63;4.30;;;6.80;99.90;;;;;;4159596;28;20045;-55
2023/11/11 05:38:21;;;;;;;7.33;4.07;;;6.80;99.90;;;;;;4160703;28;20092;-57
2023/11/11 05:40:22;;;;;;;5.83;4.63;;;6.70;99.90;;;;;;4159444;28;20041;-56
2023/11/11 05:42:23;;;;;;;6.97;4.30;;;6.80;99.90;;;;;;4160236;28;20033;-57
2023/11/11 05:44:24;;;;;;;7.07;4.40;;;6.80;99.90;;;;;;4159749;28;20478;-52
2023/11/11 05:46:25;;;;;;;6.33;4.43;;;6.80;99.90;;;;;;4160201;28;20037;-58
2023/11/11 05:48:27;;;;;;;10.07;5.53;;;6.80;99.90;;;;;;4159824;28;20378;-57
2023/11/11 05:50:28;;;;;;;11.53;5.83;;;6.80;99.90;;;;;;4161344;28;20095;-58
2023/11/11 05:52:29;;;;;;;7.13;4.63;;;6.80;99.90;;;;;;4162765;28;20090;-57
2023/11/11 05:54:30;;;;;;;7.00;4.67;;;6.80;99.90;;;;;;4162485;28;20188;-58
2023/11/11 05:56:31;;;;;;;7.73;4.70;;;6.80;99.90;;;;;;4163273;28;20100;-58
2023/11/11 05:58:32;;;;;;;6.40;5.10;;;6.80;99.90;;;;;;4161763;28;20458;-58
2023/11/11 06:00:37;;;;;;;14.93;6.00;;;6.80;99.90;;;;;;4162686;28;20033;-56
2023/11/11 06:02:39;;;;;;;17.27;8.83;;;6.80;99.90;;;;;;4156801;28;20037;-57
2023/11/11 06:04:40;;;;;;;14.47;7.97;;;6.80;99.90;;;;;;4163294;28;20037;-57
2023/11/11 06:06:44;;;;;;;11.07;5.97;;;6.80;99.90;;;;;;4162224;28;20076;-54
2023/11/11 06:08:47;;;;;;;11.87;5.20;;;6.90;99.90;;;;;;4163234;28;20045;-56
2023/11/11 06:10:48;;;;;;;5.53;4.00;;;6.90;99.90;;;;;;4162091;28;20037;-57
2023/11/11 06:12:49;;;;;;;6.83;4.70;;;6.90;99.90;;;;;;4162636;28;20050;-57
2023/11/11 06:14:51;;;;;;;4.97;4.20;;;6.90;99.90;;;;;;4162465;28;20095;-55
2023/11/11 06:16:52;;;;;;;9.37;5.20;;;7.00;99.90;;;;;;4162929;28;20037;-58
2023/11/11 06:18:53;;;;;;;8.57;4.87;;;7.10;99.90;;;;;;4160311;28;20049;-58
2023/11/11 06:20:55;;;;;;;6.67;4.20;;;7.10;99.90;;;;;;4162796;28;20099;-57
2023/11/11 06:22:56;;;;;;;6.63;4.73;;;7.20;99.90;;;;;;4162443;28;20110;-57
2023/11/11 06:24:57;;;;;;;6.63;5.30;;;7.20;99.90;;;;;;4162157;28;20091;-55
2023/11/11 06:26:58;;;;;;;7.30;4.67;;;7.20;99.90;;;;;;4162317;28;20038;-57
2023/11/11 06:28:59;;;;;;;6.73;4.43;;;7.20;99.90;;;;;;4161652;28;20026;-58
2023/11/11 06:31:00;;;;;;;12.00;6.03;;;7.30;99.90;;;;;;4162261;28;20098;-58
2023/11/11 06:33:02;;;;;;;10.37;6.20;;;7.30;99.90;;;;;;4161179;28;20093;-59
2023/11/11 06:35:04;;;;;;;9.33;5.47;;;7.30;99.90;;;;;;4162508;28;20049;-53
2023/11/11 06:37:05;;;;;;;9.67;5.20;;;7.30;99.90;;;;;;4161313;28;20045;-56
2023/11/11 06:39:08;;;;;;;8.00;5.40;;;7.30;99.90;;;;;;4162700;28;20037;-60
2023/11/11 06:41:09;;;;;;;8.13;5.07;;;7.30;99.90;;;;;;4161201;28;20106;-57
2023/11/11 06:43:11;;;;;;;7.53;4.83;;;7.30;99.90;;;;;;4161361;28;20045;-57
2023/11/11 06:45:14;;;;;;;8.60;5.30;;;7.30;99.90;;;;;;4161977;28;20480;-54
2023/11/11 06:47:15;;;;;;;8.93;5.47;;;7.30;99.90;;;;;;4162548;28;20030;-59
2023/11/11 06:49:17;;;;;;;11.87;5.33;;;7.30;99.90;;;;;;4161271;28;20087;-62
2023/11/11 06:51:18;;;;;;;11.67;6.83;;;7.30;99.90;;;;;;4161702;28;21115;-60
2023/11/11 06:53:20;;;;;;;12.50;6.63;;;7.30;99.90;;;;;;4161203;28;20033;-58
2023/11/11 06:55:21;;;;;;;7.27;4.63;;;7.30;99.90;;;;;;4161556;28;20045;-60
2023/11/11 06:57:22;;;;;;;7.83;5.13;;;7.30;99.90;;;;;;4160245;28;20103;-59
2023/11/11 06:59:23;;;;;;;7.97;5.23;;;7.40;99.90;;;;;;4160275;28;20488;-59
2023/11/11 07:01:25;;;;;;;14.13;7.23;;;7.30;99.90;;;;;;4161760;28;20033;-56
2023/11/11 07:03:28;;;;;;;8.60;5.00;;;7.30;99.90;;;;;;4160770;28;20133;-59
2023/11/11 07:05:30;;;;;;;9.90;4.80;;;7.40;99.90;;;;;;4161939;28;20071;-58
2023/11/11 07:07:31;;;;;;;13.23;4.83;;;7.40;99.90;;;;;;4160998;28;20037;-58
2023/11/11 07:09:33;;;;;;;6.87;4.23;;;7.40;99.90;;;;;;4160852;28;20029;-59
2023/11/11 07:11:34;;;;;;;6.43;4.20;;;7.50;99.90;;;;;;4160802;28;20438;-60
2023/11/11 07:13:35;;;;;;;6.17;4.37;;;7.50;99.90;;;;;;4161614;28;20033;-56
2023/11/11 07:15:36;;;;;;;12.87;5.67;;;7.50;99.90;;;;;;4161422;28;20481;-59
2023/11/11 07:17:41;;;;;;;6.87;4.40;;;7.50;99.90;;;;;;4161842;28;20029;-62
2023/11/11 07:19:42;;;;;;;6.73;4.50;;;7.50;99.90;;;;;;4158364;28;20436;-60
2023/11/11 07:21:43;;;;;;;6.70;4.63;;;7.50;99.90;;;;;;4160829;28;20053;-62
2023/11/11 07:23:44;;;;;;;8.20;5.00;;;7.50;99.90;;;;;;4160612;28;20060;-62
2023/11/11 07:25:45;;;;;;;8.60;5.40;;;7.50;99.90;;;;;;4161077;28;20527;-61
2023/11/11 07:27:47;;;;;;;10.63;6.03;;;7.60;99.90;;;;;;4160962;28;20037;-58
2023/11/11 07:29:48;;;;;;;9.27;5.50;;;7.60;99.90;;;;;;4160819;28;20118;-60
2023/11/11 07:31:49;;;;;;;15.43;9.53;;;7.70;99.90;;;;;;4160205;28;20021;-58
2023/11/11 07:33:51;;;;;;;12.80;9.40;;;7.70;99.90;;;;;;4158405;28;20037;-60
2023/11/11 07:35:52;;;;;;;12.97;9.17;;;7.70;99.90;;;;;;4161283;28;20452;-61
2023/11/11 07:37:54;;;;;;;12.30;7.20;;;7.70;99.90;;;;;;4160670;28;20041;-59
2023/11/11 07:39:55;;;;;;;13.87;9.10;;;7.70;99.90;;;;;;4161559;28;20041;-59
2023/11/11 07:41:56;;;;;;;13.60;8.80;;;7.80;99.90;;;;;;4160445;28;20466;-61
2023/11/11 07:44:04;;;;;;;10.27;6.90;;;7.80;99.90;;;;;;4161873;28;20041;-60
2023/11/11 07:46:05;;;;;;;11.83;7.33;;;7.90;99.90;;;;;;4160180;28;20099;-60
2023/11/11 07:48:06;;;;;;;9.77;5.60;;;7.90;99.90;;;;;;4161038;28;20037;-56
2023/11/11 07:50:09;;;;;;;9.40;5.07;;;8.00;99.90;;;;;;4160190;28;20059;-60
2023/11/11 07:52:10;;;;;;;9.10;5.20;;;8.30;99.90;;;;;;4161085;28;20452;-59
2023/11/11 07:54:12;;;;;;;6.00;5.00;;;8.40;99.90;;;;;;4160458;28;20045;-61
2023/11/11 07:56:13;;;;;;;9.57;4.07;;;8.40;99.90;;;;;;4159567;28;20536;-60
2023/11/11 07:58:14;;;;;;;6.80;4.43;;;8.40;99.90;;;;;;4159939;28;20099;-59
2023/11/11 08:00:18;;;;;;;6.90;4.67;;;8.40;99.90;;;;;;4160599;28;20440;-60
2023/11/11 08:02:24;;;;;;;9.13;5.17;;;8.50;99.90;;;;;;4160543;28;20414;-59
2023/11/11 08:04:26;;;;;;;9.97;5.33;;;8.50;99.90;;;;;;4160388;28;20099;-59
2023/11/11 08:06:27;;;;;;;10.47;4.83;;;8.60;99.90;;;;;;4158796;28;20497;-61
2023/11/11 08:08:29;;;;;;;11.57;5.97;;;8.90;99.90;;;;;;4160151;28;20092;-61
2023/11/11 08:10:31;;;;;;;8.37;5.63;;;9.00;99.90;;;;;;4160832;28;20029;-60
2023/11/11 08:12:33;;;;;;;10.83;5.43;;;9.10;99.90;;;;;;4159370;28;20049;-61
2023/11/11 08:14:34;;;;;;;7.10;4.53;;;9.10;99.90;;;;;;4161115;28;20485;-60
2023/11/11 08:16:35;;;;;;;10.60;5.20;;;9.20;99.90;;;;;;4160051;28;20045;-60
2023/11/11 08:18:36;;;;;;;6.20;4.47;;;9.20;99.90;;;;;;4160951;28;20107;-61
2023/11/11 08:20:37;;;;;;;5.73;4.53;;;9.30;99.90;;;;;;4158200;28;20034;-60
2023/11/11 08:22:42;;;;;;;6.67;4.47;;;9.30;99.90;;;;;;4160894;28;20083;-59
2023/11/11 08:24:43;;;;;;;7.47;5.40;;;9.30;99.90;;;;;;4160080;28;20552;-60
2023/11/11 08:26:44;;;;;;;7.37;4.83;;;9.40;99.90;;;;;;4161007;28;20045;-61
2023/11/11 08:28:45;;;;;;;7.30;4.63;;;9.50;99.90;;;;;;4159539;28;20095;-60
2023/11/11 08:30:46;;;;;;;8.23;4.30;;;9.70;99.90;;;;;;4160206;28;20094;-59
2023/11/11 08:32:48;;;;;;;6.30;4.60;;;9.70;99.90;;;;;;4160219;28;20026;-58
2023/11/11 08:34:50;;;;;;;18.03;9.43;;;9.60;99.90;;;;;;4159858;28;20041;-61
2023/11/11 08:36:51;;;;;;;10.30;7.03;;;9.50;99.90;;;;;;4160003;28;20050;-60
2023/11/11 08:38:52;;;;;;;6.63;5.10;;;9.50;99.90;;;;;;4159891;28;20155;-58
2023/11/11 08:40:53;;;;;;;10.27;6.20;;;9.70;99.90;;;;;;4160466;28;20033;-61
2023/11/11 08:42:54;;;;;;;26.90;13.83;;;9.70;99.90;;;;;;4159467;28;20029;-60
2023/11/11 08:44:58;;;;;;;9.77;6.17;;;9.70;99.90;;;;;;4161290;28;20037;-60
2023/11/11 08:47:00;;;;;;;16.97;9.33;;;9.70;99.90;;;;;;4159396;28;20052;-60
2023/11/11 08:49:01;;;;;;;19.33;11.80;;;9.70;99.90;;;;;;4160737;28;20037;-60
2023/11/11 08:51:02;;;;;;;9.77;6.83;;;9.90;99.90;;;;;;4159360;28;20095;-59
2023/11/11 08:53:03;;;;;;;12.33;7.30;;;10.10;99.90;;;;;;4160715;28;20335;-60
2023/11/11 08:55:06;;;;;;;11.00;6.43;;;10.30;99.90;;;;;;4159378;28;20041;-57
2023/11/11 08:57:07;;;;;;;7.73;5.67;;;10.40;99.90;;;;;;4160701;28;21034;-60
2023/11/11 08:59:11;;;;;;;11.30;5.57;;;10.60;99.90;;;;;;4159358;28;20034;-60
2023/11/11 09:01:13;;;;;;;9.57;6.70;;;10.70;99.90;;;;;;4160390;28;20087;-59
2023/11/11 09:03:15;;;;;;;8.17;5.30;;;10.90;99.90;;;;;;4159703;28;20084;-61
2023/11/11 09:05:16;;;;;;;8.17;5.03;;;11.00;99.90;;;;;;4160091;28;20481;-60
2023/11/11 09:07:18;;;;;;;5.83;3.60;;;11.10;99.90;;;;;;4159924;28;20021;-60
2023/11/11 09:09:20;;;;;;;5.93;3.97;;;11.10;99.90;;;;;;4159952;28;20049;-59
2023/11/11 09:11:21;;;;;;;5.80;3.90;;;11.20;99.90;;;;;;4160189;28;20484;-60
2023/11/11 09:13:23;;;;;;;7.57;3.87;;;11.40;99.90;;;;;;4159216;28;20030;-59
2023/11/11 09:15:24;;;;;;;4.40;3.47;;;11.40;99.90;;;;;;4160824;28;20041;-60
2023/11/11 09:17:25;;;;;;;5.00;3.77;;;11.50;99.90;;;;;;4159071;28;20034;-60
2023/11/11 09:19:26;;;;;;;5.57;3.67;;;11.60;99.90;;;;;;4160116;28;20144;-60
2023/11/11 09:21:28;;;;;;;5.03;3.10;;;11.80;99.90;;;;;;4159090;28;20095;-59
2023/11/11 09:23:29;;;;;;;4.27;3.37;;;11.80;99.90;;;;;;4160316;28;20033;-60
2023/11/11 09:25:30;;;;;;;6.03;3.33;;;11.80;99.90;;;;;;4160753;28;20072;-60
2023/11/11 09:27:32;;;;;;;6.37;4.00;;;11.90;99.90;;;;;;4163388;28;20037;-60
2023/11/11 09:29:33;;;;;;;5.77;3.93;;;11.90;99.90;;;;;;4162554;28;20044;-60
2023/11/11 09:31:35;;;;;;;7.40;4.17;;;11.90;99.90;;;;;;4161805;28;20064;-60
2023/11/11 09:33:39;;;;;;;6.40;3.60;;;11.80;99.90;;;;;;4162113;28;20026;-61
2023/11/11 09:35:40;;;;;;;5.50;4.03;;;11.70;99.90;;;;;;4162817;28;20034;-61
2023/11/11 09:37:41;;;;;;;5.93;4.13;;;11.70;99.90;;;;;;4162682;28;20033;-62
2023/11/11 09:39:43;;;;;;;4.53;3.50;;;11.70;99.90;;;;;;4162795;28;20041;-60
2023/11/11 09:41:44;;;;;;;4.47;3.70;;;11.70;99.90;;;;;;4163059;28;20033;-60
2023/11/11 09:43:47;;;;;;;4.17;3.77;;;11.50;99.90;;;;;;4162352;28;20041;-60
2023/11/11 09:45:51;;;;;;;6.20;4.37;;;11.30;99.90;;;;;;4163285;28;20030;-59
2023/11/11 09:47:54;;;;;;;4.17;3.50;;;11.10;99.90;;;;;;4161782;28;20045;-61
2023/11/11 09:49:55;;;;;;;8.43;5.07;;;11.00;99.90;;;;;;4162971;28;20551;-59
2023/11/11 09:51:57;;;;;;;11.37;4.17;;;11.10;99.90;;;;;;4161869;28;20076;-60
2023/11/11 09:54:00;;;;;;;8.70;4.20;;;11.10;99.90;;;;;;4162946;28;20134;-60
2023/11/11 09:56:03;;;;;;;7.97;4.20;;;11.10;99.90;;;;;;4161792;28;20487;-59
2023/11/11 09:58:06;;;;;;;7.43;4.23;;;11.20;99.90;;;;;;4162854;28;20091;-59
2023/11/11 10:00:11;;;;;;;7.93;4.70;;;11.20;99.90;;;;;;4161626;28;20459;-59
2023/11/11 10:02:13;;;;;;;8.50;4.80;;;11.30;99.90;;;;;;4162683;28;20094;-60
2023/11/11 10:04:14;;;;;;;6.53;4.27;;;11.30;99.90;;;;;;4161375;28;20536;-60
2023/11/11 10:06:16;;;;;;;7.27;4.20;;;11.30;99.90;;;;;;4162766;28;20029;-61
2023/11/11 10:08:17;;;;;;;6.30;4.40;;;11.30;99.90;;;;;;4161782;28;20114;-60
2023/11/11 10:10:18;;;;;;;7.53;4.13;;;11.40;99.90;;;;;;4162300;28;20088;-62
2023/11/11 10:12:20;;;;;;;5.90;4.53;;;11.30;99.90;;;;;;4162036;28;20021;-61
2023/11/11 10:14:21;;;;;;;8.40;5.20;;;11.30;99.90;;;;;;4162499;28;20045;-61
2023/11/11 10:16:25;;;;;;;14.00;5.23;;;11.10;99.90;;;;;;4162342;28;20037;-59
2023/11/11 10:18:26;;;;;;;7.33;5.23;;;11.20;99.90;;;;;;4161342;28;20029;-60
2023/11/11 10:20:30;;;;;;;7.07;4.70;;;11.10;99.90;;;;;;4162301;28;20029;-59
2023/11/11 10:22:31;;;;;;;6.50;5.07;;;11.20;99.90;;;;;;4161523;28;20083;-58
2023/11/11 10:24:32;;;;;;;6.37;4.37;;;11.10;99.90;;;;;;4162355;28;20389;-59
2023/11/11 10:26:33;;;;;;;8.17;4.80;;;11.10;99.90;;;;;;4161746;28;20881;-60
2023/11/11 10:28:34;;;;;;;6.23;4.90;;;11.10;99.90;;;;;;4162371;28;20033;-59
2023/11/11 10:30:35;;;;;;;7.87;4.53;;;11.10;99.90;;;;;;4161476;28;20046;-58
2023/11/11 10:32:37;;;;;;;4.70;4.20;;;11.00;99.90;;;;;;4162295;28;20442;-59
2023/11/11 10:34:38;;;;;;;8.30;5.13;;;11.10;99.90;;;;;;4161365;28;20482;-59
2023/11/11 10:36:43;;;;;;;7.23;5.13;;;11.10;99.90;;;;;;4162041;28;20045;-59
2023/11/11 10:38:44;;;;;;;4.87;4.30;;;11.30;99.90;;;;;;4161234;28;20033;-60